Time;durP1;ratioP1;P1;durP2;ratioP2;P2;SDS_P1;SDS_P2;PMS_P1;PMS_P2;Temp;Humidity;BMP_temperature;BMP_pressure;BME280_temperature;BME280_humidity;BME280_pressure;Samples;Min_cycle;Max_cycle;Signal;HPM_P1;HPM_P2
2020/12/25 00:00:45;;;;;;;0.50;0.50;;;;;;;-3.08;100.00;101485.22;4845136;29;20048;-81
2020/12/25 00:03:47;;;;;;;0.60;0.60;;;;;;;-3.11;100.00;101485.09;4833408;29;20124;-82
2020/12/25 00:06:50;;;;;;;1.35;0.95;;;;;;;-3.17;100.00;101487.28;4844144;29;20028;-81
2020/12/25 00:09:53;;;;;;;4.07;2.42;;;;;;;-3.20;100.00;101487.97;4843870;29;20116;-85
2020/12/25 00:12:56;;;;;;;3.53;3.25;;;;;;;-3.18;100.00;101493.84;4844059;29;20172;-83
2020/12/25 00:16:00;;;;;;;13.70;3.08;;;;;;;-3.16;100.00;101498.94;4843947;29;20109;-81
2020/12/25 00:19:03;;;;;;;1.90;1.63;;;;;;;-3.10;100.00;101503.81;4843649;29;20088;-81
2020/12/25 00:22:06;;;;;;;4.88;2.05;;;;;;;-3.04;100.00;101493.50;4844146;29;21286;-82
2020/12/25 00:25:09;;;;;;;0.98;0.98;;;;;;;-2.98;100.00;101497.56;4845512;29;20105;-81
2020/12/25 00:28:13;;;;;;;14.43;2.45;;;;;;;-2.92;100.00;101500.84;4846334;29;20128;-83
2020/12/25 00:31:31;;;;;;;12.00;2.85;;;;;;;-2.95;100.00;101510.50;4833762;29;20102;-81
2020/12/25 00:34:34;;;;;;;2.70;1.20;;;;;;;-2.97;100.00;101512.00;4845259;29;20100;-81
2020/12/25 00:37:37;;;;;;;2.83;1.27;;;;;;;-2.98;100.00;101515.84;4845999;29;20132;-81
2020/12/25 00:40:43;;;;;;;1.52;1.42;;;;;;;-3.03;100.00;101519.59;4845103;29;20104;-81
2020/12/25 00:43:47;;;;;;;1.88;0.88;;;;;;;-3.09;100.00;101515.53;4832582;29;20044;-81
2020/12/25 00:46:49;;;;;;;0.73;0.73;;;;;;;-3.12;100.00;101517.00;4843867;29;20052;-81
2020/12/25 00:49:52;;;;;;;1.35;1.25;;;;;;;-3.18;100.00;101510.19;4844274;29;20037;-81
2020/12/25 00:52:55;;;;;;;0.73;0.73;;;;;;;-3.21;100.00;101524.53;4832096;29;20105;-81
2020/12/25 00:56:02;;;;;;;1.73;1.65;;;;;;;-3.24;100.00;101551.63;4843597;29;20430;-81
2020/12/25 00:59:05;;;;;;;2.33;1.10;;;;;;;-3.26;100.00;101534.84;4844295;29;21118;-82
2020/12/25 01:02:08;;;;;;;1.00;1.00;;;;;;;-3.29;100.00;101532.81;4844510;29;20033;-81
2020/12/25 01:05:11;;;;;;;0.28;0.28;;;;;;;-3.33;100.00;101538.13;4843385;29;20055;-80
2020/12/25 01:08:13;;;;;;;1.95;1.30;;;;;;;-3.36;100.00;101544.28;4843019;29;20036;-81
2020/12/25 01:11:17;;;;;;;1.08;0.77;;;;;;;-3.38;100.00;101534.84;4844973;29;20402;-81
2020/12/25 01:14:20;;;;;;;1.60;1.00;;;;;;;-3.44;100.00;101526.09;4832792;29;20060;-82
2020/12/25 01:17:23;;;;;;;0.88;0.88;;;;;;;-3.48;100.00;101533.38;4844489;29;20044;-80
2020/12/25 01:20:26;;;;;;;1.10;0.68;;;;;;;-3.51;100.00;101547.66;4833684;29;20036;-82
2020/12/25 01:23:29;;;;;;;1.85;1.20;;;;;;;-3.56;100.00;101550.59;4844059;29;20584;-82
2020/12/25 01:26:32;;;;;;;0.77;0.77;;;;;;;-3.60;100.00;101544.25;4832011;29;20060;-80
2020/12/25 01:29:35;;;;;;;1.42;1.33;;;;;;;-3.63;100.00;101544.13;4847274;29;20036;-82
2020/12/25 01:32:38;;;;;;;2.70;2.45;;;;;;;-3.62;100.00;101543.81;4848819;29;20044;-83
2020/12/25 01:35:41;;;;;;;2.30;1.63;;;;;;;-3.66;100.00;101539.38;4849377;29;20089;-82
2020/12/25 01:38:44;;;;;;;0.52;0.52;;;;;;;-3.67;100.00;101532.31;4847898;29;20107;-82
2020/12/25 01:41:47;;;;;;;0.95;0.95;;;;;;;-3.71;100.00;101526.78;4848047;29;20177;-82
2020/12/25 01:44:50;;;;;;;0.98;0.93;;;;;;;-3.70;100.00;101533.78;4845979;29;20818;-82
2020/12/25 01:47:54;;;;;;;1.95;1.85;;;;;;;-3.77;100.00;101522.69;4846910;29;20712;-82
2020/12/25 01:50:59;;;;;;;3.17;2.22;;;;;;;-3.82;100.00;101525.63;4848289;29;20616;-84
2020/12/25 01:54:02;;;;;;;6.00;2.85;;;;;;;-3.89;100.00;101538.97;4848126;29;20040;-82
2020/12/25 01:57:05;;;;;;;0.93;0.93;;;;;;;-3.93;100.00;101538.88;4847650;29;20141;-81
2020/12/25 02:00:09;;;;;;;1.38;1.38;;;;;;;-3.93;100.00;101532.63;4847858;29;20870;-81
2020/12/25 02:03:12;;;;;;;5.90;1.65;;;;;;;-3.97;100.00;101523.56;4847867;29;20089;-80
2020/12/25 02:06:15;;;;;;;1.58;0.75;;;;;;;-3.96;100.00;101536.81;4851596;29;20795;-81
2020/12/25 02:09:18;;;;;;;1.13;1.08;;;;;;;-4.00;100.00;101524.22;4850666;29;20119;-79
2020/12/25 02:12:21;;;;;;;1.88;1.23;;;;;;;-4.05;100.00;101516.28;4851226;29;20818;-81
2020/12/25 02:15:24;;;;;;;1.30;1.20;;;;;;;-4.08;100.00;101514.22;4851492;29;20108;-82
2020/12/25 02:18:37;;;;;;;0.85;0.85;;;;;;;-4.10;100.00;101511.84;4850771;29;20665;-82
2020/12/25 02:21:40;;;;;;;0.82;0.82;;;;;;;-4.05;100.00;101510.84;4866149;29;20148;-82
2020/12/25 02:24:43;;;;;;;2.50;2.30;;;;;;;-4.06;100.00;101503.81;4870087;29;20113;-82
2020/12/25 02:27:46;;;;;;;4.30;1.77;;;;;;;-4.08;100.00;101506.06;4880484;29;20063;-82
2020/12/25 02:30:49;;;;;;;1.83;1.73;;;;;;;-4.10;100.00;101506.41;4863008;29;20040;-82
2020/12/25 02:33:52;;;;;;;6.75;1.15;;;;;;;-4.12;100.00;101521.47;4879338;29;20048;-82
2020/12/25 02:36:55;;;;;;;1.00;0.60;;;;;;;-4.13;100.00;101519.88;4869202;29;20093;-81
2020/12/25 02:39:58;;;;;;;8.35;1.45;;;;;;;-4.09;100.00;101515.34;4880626;29;20040;-81
2020/12/25 02:43:00;;;;;;;2.35;1.73;;;;;;;-4.09;100.00;101513.44;4880395;29;20517;-83
2020/12/25 02:46:03;;;;;;;7.30;1.30;;;;;;;-4.12;100.00;101519.56;4880413;29;20177;-83
2020/12/25 02:49:07;;;;;;;2.40;1.08;;;;;;;-4.19;100.00;101518.50;4880305;29;20127;-84
2020/12/25 02:52:10;;;;;;;3.30;1.70;;;;;;;-4.22;100.00;101511.03;4880504;29;20060;-84
2020/12/25 02:55:13;;;;;;;0.60;0.60;;;;;;;-4.29;100.00;101510.78;4869108;29;20035;-83
2020/12/25 02:58:16;;;;;;;1.90;1.38;;;;;;;-4.31;100.00;101530.13;4868810;29;20754;-82
2020/12/25 03:01:19;;;;;;;0.77;0.77;;;;;;;-4.34;100.00;101522.66;4880137;29;20052;-82
2020/12/25 03:04:21;;;;;;;1.67;1.58;;;;;;;-4.37;100.00;101520.59;4869062;29;20044;-83
2020/12/25 03:07:24;;;;;;;2.92;1.02;;;;;;;-4.38;100.00;101523.66;4881105;29;20505;-82
2020/12/25 03:10:27;;;;;;;5.97;1.30;;;;;;;-4.37;100.00;101525.22;4880433;29;20513;-82
2020/12/25 03:13:31;;;;;;;2.00;1.58;;;;;;;-4.39;100.00;101527.50;4868367;29;20072;-82
2020/12/25 03:16:34;;;;;;;0.77;0.77;;;;;;;-4.37;100.00;101530.66;4868226;29;20372;-83
2020/12/25 03:19:36;;;;;;;0.70;0.70;;;;;;;-4.40;100.00;101529.44;4879995;29;20047;-81
2020/12/25 03:22:39;;;;;;;1.00;1.00;;;;;;;-4.40;100.00;101523.19;4899026;29;20097;-82
2020/12/25 03:25:42;;;;;;;1.88;1.58;;;;;;;-4.44;100.00;101519.56;4898935;29;20496;-82
2020/12/25 03:28:45;;;;;;;1.00;1.00;;;;;;;-4.45;100.00;101524.19;4899207;29;20504;-82
2020/12/25 03:31:48;;;;;;;1.02;1.02;;;;;;;-4.47;100.00;101525.66;4898964;29;20051;-82
2020/12/25 03:34:51;;;;;;;1.33;1.23;;;;;;;-4.46;100.00;101535.41;4899125;29;20414;-82
2020/12/25 03:37:53;;;;;;;0.60;0.60;;;;;;;-4.50;100.00;101515.47;4898898;29;20044;-82
2020/12/25 03:40:56;;;;;;;1.85;1.10;;;;;;;-4.48;100.00;101524.09;4898840;29;20111;-82
2020/12/25 03:43:59;;;;;;;1.23;0.95;;;;;;;-4.47;100.00;101514.78;4887739;29;20148;-82
2020/12/25 03:47:02;;;;;;;0.85;0.85;;;;;;;-4.52;100.00;101512.25;4879807;29;20517;-81
2020/12/25 03:50:05;;;;;;;1.10;1.10;;;;;;;-4.58;100.00;101513.59;4880126;29;20055;-82
2020/12/25 03:53:08;;;;;;;0.70;0.70;;;;;;;-4.65;100.00;101508.69;4879622;29;20052;-82
2020/12/25 03:56:10;;;;;;;0.85;0.85;;;;;;;-4.70;100.00;101523.28;4879512;29;20060;-81
2020/12/25 03:59:13;;;;;;;3.72;1.42;;;;;;;-4.73;100.00;101529.41;4879859;29;20074;-81
2020/12/25 04:02:16;;;;;;;0.55;0.55;;;;;;;-4.73;100.00;101540.28;4879425;29;20136;-82
2020/12/25 04:05:19;;;;;;;0.57;0.57;;;;;;;-4.72;100.00;101525.53;4867479;29;20044;-81
2020/12/25 04:08:22;;;;;;;3.92;1.30;;;;;;;-4.73;100.00;101534.84;4879191;29;20097;-82
2020/12/25 04:11:25;;;;;;;1.33;1.33;;;;;;;-4.73;100.00;101518.53;4867478;29;20048;-82
2020/12/25 04:14:28;;;;;;;1.10;0.43;;;;;;;-4.76;100.00;101530.06;4867493;29;20097;-82
2020/12/25 04:17:30;;;;;;;1.58;0.93;;;;;;;-4.78;100.00;101535.03;4878912;29;20039;-82
2020/12/25 04:20:33;;;;;;;1.90;1.25;;;;;;;-4.78;100.00;101545.91;4878931;29;20044;-83
2020/12/25 04:23:37;;;;;;;3.60;1.25;;;;;;;-4.75;100.00;101537.09;4878691;29;20558;-83
2020/12/25 04:26:44;;;;;;;3.03;0.75;;;;;;;-4.75;100.00;101536.28;4866365;29;20326;-82
2020/12/25 04:29:47;;;;;;;1.90;1.27;;;;;;;-4.78;100.00;101526.88;4878626;29;20189;-82
2020/12/25 04:32:50;;;;;;;1.30;1.25;;;;;;;-4.77;100.00;101533.91;4878774;29;20052;-82
2020/12/25 04:35:53;;;;;;;0.20;0.20;;;;;;;-4.80;100.00;101540.00;4878921;29;20114;-83
2020/12/25 04:38:56;;;;;;;1.52;1.48;;;;;;;-4.84;100.00;101549.13;4867311;29;20060;-83
2020/12/25 04:41:59;;;;;;;0.98;0.98;;;;;;;-4.86;100.00;101552.19;4878675;29;20509;-82
2020/12/25 04:45:05;;;;;;;1.33;1.15;;;;;;;-4.87;100.00;101550.59;4876445;29;20064;-82
2020/12/25 04:48:09;;;;;;;1.00;1.00;;;;;;;-4.86;100.00;101556.81;4878666;29;20052;-83
2020/12/25 04:51:12;;;;;;;0.43;0.43;;;;;;;-4.87;100.00;101545.16;4878617;29;20044;-82
2020/12/25 04:54:15;;;;;;;0.95;0.95;;;;;;;-4.87;100.00;101547.88;4878463;29;20145;-84
2020/12/25 04:57:18;;;;;;;0.50;0.50;;;;;;;-4.91;100.00;101546.94;4878120;29;20219;-81
2020/12/25 05:00:24;;;;;;;2.30;0.85;;;;;;;-4.93;100.00;101543.78;4866702;29;20105;-84
2020/12/25 05:03:32;;;;;;;1.17;1.17;;;;;;;-4.95;100.00;101543.31;4877788;29;20180;-83
2020/12/25 05:06:35;;;;;;;1.52;1.42;;;;;;;-4.94;100.00;101546.81;4878139;29;20093;-83
2020/12/25 05:09:38;;;;;;;1.60;1.50;;;;;;;-4.95;100.00;101548.72;4878109;29;20646;-83
2020/12/25 05:12:45;;;;;;;0.80;0.80;;;;;;;-4.95;100.00;101548.72;4876594;29;20121;-81
2020/12/25 05:15:48;;;;;;;1.13;1.13;;;;;;;-4.95;100.00;101546.03;4878040;29;20116;-81
2020/12/25 05:18:52;;;;;;;0.57;0.57;;;;;;;-4.97;100.00;101550.19;4878343;29;20123;-81
2020/12/25 05:21:56;;;;;;;1.10;1.05;;;;;;;-5.01;100.00;101544.63;4878102;29;20048;-82
2020/12/25 05:25:02;;;;;;;1.02;1.02;;;;;;;-5.04;100.00;101550.72;4877854;29;20525;-81
2020/12/25 05:28:12;;;;;;;5.97;1.17;;;;;;;-5.05;100.00;101548.34;4877813;29;20040;-81
2020/12/25 05:31:17;;;;;;;0.82;0.82;;;;;;;-5.06;100.00;101552.97;4865992;29;20082;-80
2020/12/25 05:34:22;;;;;;;1.63;1.52;;;;;;;-5.05;100.00;101554.56;4877782;29;20071;-81
2020/12/25 05:37:33;;;;;;;0.70;0.70;;;;;;;-5.00;100.00;101562.50;4878113;29;20040;-82
2020/12/25 05:40:43;;;;;;;1.50;1.48;;;;;;;-4.97;100.00;101551.00;4881515;29;20442;-82
2020/12/25 05:43:48;;;;;;;1.38;1.27;;;;;;;-4.94;100.00;101549.53;4881481;29;20406;-81
2020/12/25 05:46:51;;;;;;;3.13;1.88;;;;;;;-4.91;100.00;101548.84;4868872;29;20052;-81
2020/12/25 05:49:54;;;;;;;1.80;1.70;;;;;;;-4.90;100.00;101545.84;4870115;29;20056;-82
2020/12/25 05:52:57;;;;;;;1.95;1.80;;;;;;;-4.88;100.00;101549.00;4869826;29;20055;-81
2020/12/25 05:56:00;;;;;;;2.55;1.67;;;;;;;-4.85;100.00;101545.63;4881483;29;20105;-81
2020/12/25 05:59:05;;;;;;;1.05;1.05;;;;;;;-4.84;100.00;101533.63;4881290;29;20040;-81
2020/12/25 06:02:08;;;;;;;1.05;1.05;;;;;;;-4.84;100.00;101536.34;4881307;29;20044;-81
2020/12/25 06:05:13;;;;;;;0.65;0.65;;;;;;;-4.82;100.00;101536.00;4880711;29;20147;-81
2020/12/25 06:08:33;;;;;;;1.23;1.23;;;;;;;-4.82;100.00;101536.81;4881270;29;20567;-82
2020/12/25 06:11:37;;;;;;;1.30;1.20;;;;;;;-4.85;100.00;101526.59;4880675;29;20044;-82
2020/12/25 06:14:39;;;;;;;0.90;0.90;;;;;;;-4.84;100.00;101522.78;4889290;29;20101;-81
2020/12/25 06:17:56;;;;;;;3.28;1.63;;;;;;;-4.85;100.00;101525.81;4899609;29;20043;-81
2020/12/25 06:21:16;;;;;;;18.48;1.73;;;;;;;-4.87;100.00;101509.84;4888018;29;20070;-80
2020/12/25 06:24:21;;;;;;;1.27;1.25;;;;;;;-4.87;100.00;101517.19;4887626;29;20532;-82
2020/12/25 06:27:28;;;;;;;2.40;1.08;;;;;;;-4.83;100.00;101524.34;4887942;29;20047;-82
2020/12/25 06:30:33;;;;;;;1.33;1.23;;;;;;;-4.82;100.00;101520.53;4887718;29;20043;-81
2020/12/25 06:33:37;;;;;;;2.65;2.08;;;;;;;-4.77;100.00;101520.31;4899312;29;20516;-81
2020/12/25 06:36:45;;;;;;;1.10;1.10;;;;;;;-4.70;100.00;101523.28;4898990;29;20044;-81
2020/12/25 06:39:55;;;;;;;6.00;2.80;;;;;;;-4.65;100.00;101517.66;4899257;29;20508;-81
2020/12/25 06:42:58;;;;;;;14.10;4.25;;;;;;;-4.63;100.00;101517.31;4896041;29;20052;-82
2020/12/25 06:46:02;;;;;;;7.43;3.85;;;;;;;-4.65;100.00;101517.66;4880675;29;20103;-81
2020/12/25 06:49:06;;;;;;;2.80;1.70;;;;;;;-4.61;100.00;101526.72;4879773;29;20089;-81
2020/12/25 06:52:09;;;;;;;0.93;0.93;;;;;;;-4.61;100.00;101521.28;4880380;29;20177;-81
2020/12/25 06:55:14;;;;;;;0.80;0.80;;;;;;;-4.57;100.00;101528.78;4868836;29;20092;-81
2020/12/25 06:58:18;;;;;;;7.93;1.42;;;;;;;-4.57;100.00;101531.50;4868718;29;20557;-81
2020/12/25 07:01:45;;;;;;;2.22;1.88;;;;;;;-4.59;100.00;101520.94;4880707;29;20096;-81
2020/12/25 07:04:50;;;;;;;2.65;0.70;;;;;;;-4.60;100.00;101522.09;4880379;29;20040;-81
2020/12/25 07:07:53;;;;;;;0.90;0.88;;;;;;;-4.64;100.00;101532.84;4879875;29;20087;-82
2020/12/25 07:11:02;;;;;;;1.17;1.17;;;;;;;-4.66;100.00;101540.50;4879695;29;20056;-82
2020/12/25 07:14:05;;;;;;;2.28;1.58;;;;;;;-4.68;100.00;101533.84;4881310;29;20059;-84
2020/12/25 07:17:08;;;;;;;1.30;1.30;;;;;;;-4.67;100.00;101536.22;4879381;29;20557;-82
2020/12/25 07:20:13;;;;;;;0.95;0.95;;;;;;;-4.68;100.00;101526.47;4868291;29;20611;-82
2020/12/25 07:23:16;;;;;;;2.15;1.73;;;;;;;-4.66;100.00;101518.78;4879944;29;20186;-81
2020/12/25 07:26:19;;;;;;;23.98;2.97;;;;;;;-4.66;100.00;101518.78;4879563;29;20097;-82
2020/12/25 07:29:22;;;;;;;1.02;1.02;;;;;;;-4.68;100.00;101515.59;4879649;29;20096;-81
2020/12/25 07:32:25;;;;;;;2.40;2.20;;;;;;;-4.68;100.00;101515.59;4879648;29;20048;-81
2020/12/25 07:35:28;;;;;;;10.70;4.13;;;;;;;-4.72;100.00;101522.06;4878890;29;20044;-81
2020/12/25 07:38:31;;;;;;;2.53;2.40;;;;;;;-4.74;100.00;101524.28;4879430;29;20101;-81
2020/12/25 07:41:37;;;;;;;8.63;4.18;;;;;;;-4.82;100.00;101523.22;4879061;29;20048;-79
2020/12/25 07:44:41;;;;;;;16.35;6.82;;;;;;;-4.88;100.00;101524.56;4867582;29;20052;-81
2020/12/25 07:47:47;;;;;;;17.38;4.15;;;;;;;-4.92;100.00;101531.78;4879517;29;20064;-78
2020/12/25 07:50:50;;;;;;;27.15;2.47;;;;;;;-4.93;100.00;101530.19;4879543;29;20055;-79
2020/12/25 07:53:54;;;;;;;7.25;3.50;;;;;;;-4.93;100.00;101530.19;4879172;29;20136;-80
2020/12/25 07:56:57;;;;;;;3.25;2.20;;;;;;;-4.95;100.00;101527.00;4878897;29;20137;-80
2020/12/25 08:00:03;;;;;;;4.55;2.45;;;;;;;-4.96;100.00;101524.63;4877995;29;20672;-79
2020/12/25 08:03:06;;;;;;;3.33;2.63;;;;;;;-4.97;100.00;101531.97;4878816;29;20106;-79
2020/12/25 08:06:12;;;;;;;7.97;3.03;;;;;;;-5.02;100.00;101526.72;4878946;29;20072;-80
2020/12/25 08:09:15;;;;;;;2.15;1.42;;;;;;;-5.01;100.00;101522.91;4878377;29;20455;-79
2020/12/25 08:12:20;;;;;;;1.15;1.15;;;;;;;-5.04;100.00;101520.84;4867066;29;20066;-82
2020/12/25 08:15:24;;;;;;;1.88;1.77;;;;;;;-5.02;100.00;101525.94;4878858;29;20040;-80
2020/12/25 08:18:28;;;;;;;5.20;3.38;;;;;;;-5.04;100.00;101534.41;4879045;29;20040;-79
2020/12/25 08:21:37;;;;;;;6.88;2.88;;;;;;;-4.99;100.00;101536.94;4878486;29;20048;-80
2020/12/25 08:24:40;;;;;;;52.10;12.55;;;;;;;-5.00;100.00;101529.91;4878377;29;20101;-80
2020/12/25 08:27:44;;;;;;;8.77;5.43;;;;;;;-5.02;100.00;101531.34;4878544;29;20415;-79
2020/12/25 08:30:47;;;;;;;11.13;6.72;;;;;;;-5.02;100.00;101536.78;4867123;29;20170;-79
2020/12/25 08:33:56;;;;;;;8.85;5.13;;;;;;;-5.05;100.00;101532.84;4893634;29;20596;-79
2020/12/25 08:37:01;;;;;;;5.88;4.07;;;;;;;-5.08;100.00;101525.34;4887918;29;20043;-79
2020/12/25 08:40:14;;;;;;;12.15;5.70;;;;;;;-5.07;100.00;101521.50;4860514;29;20045;-79
2020/12/25 08:43:18;;;;;;;7.63;1.83;;;;;;;-5.07;100.00;101518.78;4866424;29;20429;-79
2020/12/25 08:46:22;;;;;;;5.50;1.95;;;;;;;-5.05;100.00;101529.31;4878716;29;20206;-79
2020/12/25 08:49:27;;;;;;;12.13;3.00;;;;;;;-5.03;100.00;101532.50;4873977;29;20128;-79
2020/12/25 08:52:32;;;;;;;6.43;4.57;;;;;;;-5.02;100.00;101534.88;4878732;29;20043;-79
2020/12/25 08:55:35;;;;;;;3.35;3.10;;;;;;;-4.95;100.00;101535.16;4878837;29;20084;-83
2020/12/25 08:58:38;;;;;;;5.78;2.60;;;;;;;-4.87;100.00;101534.28;4868304;29;20052;-80
2020/12/25 09:01:42;;;;;;;3.50;2.30;;;;;;;-4.76;100.00;101548.28;4886218;29;20108;-80
2020/12/25 09:04:45;;;;;;;11.02;5.53;;;;;;;-4.69;100.00;101551.25;4884311;29;20100;-79
2020/12/25 09:07:48;;;;;;;10.73;5.20;;;;;;;-4.63;100.00;101545.28;4873752;29;20736;-80
2020/12/25 09:10:51;;;;;;;2.33;2.08;;;;;;;-4.55;100.00;101540.13;4884587;29;20135;-79
2020/12/25 09:13:54;;;;;;;17.48;4.20;;;;;;;-4.50;100.00;101538.00;4895684;29;20060;-79
2020/12/25 09:16:57;;;;;;;21.35;6.85;;;;;;;-4.41;100.00;101541.44;4896124;29;20135;-80
2020/12/25 09:20:00;;;;;;;14.23;4.75;;;;;;;-4.34;100.00;101540.91;4896743;29;20208;-81
2020/12/25 09:23:06;;;;;;;6.72;3.50;;;;;;;-4.27;100.00;101535.72;4896982;29;20097;-81
2020/12/25 09:26:11;;;;;;;4.10;3.67;;;;;;;-4.19;100.00;101532.09;4896687;29;20393;-81
2020/12/25 09:29:14;;;;;;;3.97;3.63;;;;;;;-4.14;100.00;101531.91;4858213;29;20569;-81
2020/12/25 09:32:17;;;;;;;11.35;5.05;;;;;;;-4.04;100.00;101528.75;4861377;29;20048;-80
2020/12/25 09:35:20;;;;;;;5.75;2.75;;;;;;;-4.01;100.00;101528.09;4860615;29;20534;-80
2020/12/25 09:38:23;;;;;;;4.88;3.35;;;;;;;-3.94;100.00;101511.97;4876289;29;20128;-80
2020/12/25 09:41:26;;;;;;;7.72;4.57;;;;;;;-3.87;100.00;101512.22;4874806;29;20052;-81
2020/12/25 09:44:29;;;;;;;7.20;3.75;;;;;;;-3.80;100.00;101503.50;4881313;29;20101;-80
2020/12/25 09:47:32;;;;;;;10.43;4.88;;;;;;;-3.76;100.00;101497.06;4877350;29;20052;-81
2020/12/25 09:50:35;;;;;;;8.07;3.15;;;;;;;-3.71;100.00;101510.44;4867129;29;20108;-80
2020/12/25 09:53:38;;;;;;;3.55;2.17;;;;;;;-3.66;100.00;101512.16;4875686;29;20051;-81
2020/12/25 09:56:41;;;;;;;11.77;2.15;;;;;;;-3.60;100.00;101517.03;4864114;29;20101;-80
2020/12/25 09:59:44;;;;;;;2.33;2.13;;;;;;;-3.57;100.00;101516.34;4864979;29;20056;-77
2020/12/25 10:02:46;;;;;;;9.02;3.03;;;;;;;-3.53;100.00;101527.38;4877551;29;20052;-78
2020/12/25 10:05:49;;;;;;;7.25;2.38;;;;;;;-3.51;100.00;101523.13;4879211;29;20052;-76
2020/12/25 10:08:53;;;;;;;5.53;2.63;;;;;;;-3.47;100.00;101521.34;4869540;29;20048;-79
2020/12/25 10:11:55;;;;;;;7.43;3.58;;;;;;;-3.45;100.00;101537.34;4862945;29;20531;-79
2020/12/25 10:14:58;;;;;;;11.63;3.72;;;;;;;-3.46;100.00;101533.81;4878155;29;20048;-79
2020/12/25 10:18:02;;;;;;;5.13;2.05;;;;;;;-3.45;100.00;101529.97;4878201;29;20044;-80
2020/12/25 10:21:05;;;;;;;1.63;1.52;;;;;;;-3.45;100.00;101535.41;4878889;29;20474;-83
2020/12/25 10:24:08;;;;;;;2.67;1.67;;;;;;;-3.44;100.00;101534.28;4880956;29;20092;-80
2020/12/25 10:27:11;;;;;;;10.32;3.10;;;;;;;-3.46;100.00;101535.75;4882037;29;20067;-80
2020/12/25 10:30:13;;;;;;;1.55;1.45;;;;;;;-3.45;100.00;101534.63;4881087;29;20044;-79
2020/12/25 10:33:16;;;;;;;5.35;2.45;;;;;;;-3.45;100.00;101529.97;4881271;29;20048;-78
2020/12/25 10:36:24;;;;;;;1.67;1.67;;;;;;;-3.44;100.00;101526.09;4881057;29;20097;-79
2020/12/25 10:39:27;;;;;;;4.72;2.33;;;;;;;-3.43;100.00;101526.91;4880390;29;20523;-79
2020/12/25 10:42:30;;;;;;;3.03;2.67;;;;;;;-3.42;100.00;101529.28;4881380;29;20517;-78
2020/12/25 10:45:33;;;;;;;10.43;3.70;;;;;;;-3.38;100.00;101526.69;4877036;29;20478;-78
2020/12/25 10:48:36;;;;;;;3.88;2.25;;;;;;;-3.36;100.00;101522.50;4880153;29;20044;-78
2020/12/25 10:51:44;;;;;;;6.45;2.05;;;;;;;-3.36;100.00;101522.50;4893765;29;20776;-78
2020/12/25 10:54:47;;;;;;;14.57;3.70;;;;;;;-3.30;100.00;101512.94;4898073;29;20114;-78
2020/12/25 10:57:50;;;;;;;7.13;3.42;;;;;;;-3.28;100.00;101513.41;4897911;29;20180;-77
2020/12/25 11:00:53;;;;;;;11.50;4.45;;;;;;;-3.22;100.00;101498.41;4898384;29;20112;-79
2020/12/25 11:03:57;;;;;;;11.70;3.55;;;;;;;-3.16;100.00;101499.75;4886616;29;20516;-77
2020/12/25 11:07:00;;;;;;;3.67;3.35;;;;;;;-3.12;100.00;101483.53;4898590;29;20063;-77
2020/12/25 11:10:03;;;;;;;3.45;2.65;;;;;;;-3.06;100.00;101493.03;4887194;29;20096;-78
2020/12/25 11:13:06;;;;;;;7.90;2.85;;;;;;;-2.98;100.00;101486.66;4899848;29;20565;-77
2020/12/25 11:16:08;;;;;;;9.20;2.42;;;;;;;-2.91;100.00;101488.81;4900744;29;20570;-78
2020/12/25 11:19:13;;;;;;;3.40;2.88;;;;;;;-2.84;100.00;101489.03;4897696;29;20047;-78
2020/12/25 11:22:16;;;;;;;2.80;2.60;;;;;;;-2.80;100.00;101481.72;4881203;29;20097;-78
2020/12/25 11:25:19;;;;;;;5.72;2.28;;;;;;;-2.71;100.00;101476.94;4879662;29;20052;-78
2020/12/25 11:28:22;;;;;;;10.90;2.30;;;;;;;-2.70;100.00;101478.50;4880515;29;20113;-77
2020/12/25 11:31:26;;;;;;;16.35;2.78;;;;;;;-2.66;100.00;101479.41;4880173;29;20093;-77
2020/12/25 11:34:29;;;;;;;16.52;4.82;;;;;;;-2.60;100.00;101478.81;4880332;29;20111;-76
2020/12/25 11:37:32;;;;;;;4.40;3.97;;;;;;;-2.51;100.00;101482.19;4880618;29;20056;-77
2020/12/25 11:40:35;;;;;;;5.47;4.28;;;;;;;-2.44;100.00;101470.66;4885326;29;20101;-76
2020/12/25 11:43:39;;;;;;;7.10;3.85;;;;;;;-2.37;100.00;101471.66;4890441;29;20102;-77
2020/12/25 11:46:42;;;;;;;13.07;4.07;;;;;;;-2.26;100.00;101466.50;4880324;29;20097;-76
2020/12/25 11:49:45;;;;;;;5.72;3.15;;;;;;;-2.15;100.00;101467.56;4879980;29;20494;-75
2020/12/25 11:52:48;;;;;;;4.30;3.00;;;;;;;-2.06;100.00;101457.28;4879670;29;20177;-76
2020/12/25 11:55:51;;;;;;;5.78;3.65;;;;;;;-2.00;100.00;101464.06;4860251;29;20118;-76
2020/12/25 11:58:54;;;;;;;10.18;2.25;;;;;;;-1.97;100.00;101463.34;4860858;29;20102;-76
2020/12/25 12:01:57;;;;;;;5.57;3.20;;;;;;;-1.84;100.00;101462.09;4861163;29;20049;-77
2020/12/25 12:05:01;;;;;;;2.05;1.48;;;;;;;-1.83;100.00;101465.63;4861325;29;20056;-77
2020/12/25 12:08:04;;;;;;;4.13;2.08;;;;;;;-1.85;100.00;101462.47;4849001;29;20055;-78
2020/12/25 12:11:06;;;;;;;2.47;1.88;;;;;;;-1.85;100.00;101465.19;4861072;29;20068;-80
2020/12/25 12:14:09;;;;;;;8.90;3.95;;;;;;;-1.84;100.00;101464.06;4860954;29;20043;-79
2020/12/25 12:17:12;;;;;;;4.03;2.55;;;;;;;-1.82;100.00;101462.56;4861784;29;20407;-79
2020/12/25 12:20:15;;;;;;;4.40;2.38;;;;;;;-1.77;100.00;101462.28;4862794;29;20097;-77
2020/12/25 12:23:18;;;;;;;3.42;2.22;;;;;;;-1.76;100.00;101452.97;4879163;29;20120;-78
2020/12/25 12:26:21;;;;;;;4.45;2.60;;;;;;;-1.69;100.00;101452.34;4879871;29;20052;-80
2020/12/25 12:29:23;;;;;;;2.05;1.83;;;;;;;-1.62;100.00;101439.63;4868964;29;20044;-81
2020/12/25 12:32:26;;;;;;;1.20;1.13;;;;;;;-1.57;100.00;101444.03;4863699;29;20051;-81
2020/12/25 12:35:29;;;;;;;2.78;1.83;;;;;;;-1.44;100.00;101442.78;4860886;29;20189;-79
2020/12/25 12:38:33;;;;;;;12.57;2.75;;;;;;;-1.23;100.00;101443.25;4878251;29;20124;-81
2020/12/25 12:41:36;;;;;;;2.67;1.85;;;;;;;-0.93;100.00;101440.75;4877240;29;20048;-79
2020/12/25 12:44:39;;;;;;;2.72;1.52;;;;;;;-0.69;100.00;101440.47;4876516;29;20048;-81
2020/12/25 12:47:42;;;;;;;2.20;2.00;;;;;;;-0.58;100.00;101425.06;4866987;29;20481;-80
2020/12/25 12:50:45;;;;;;;6.03;2.42;;;;;;;-0.44;100.00;101433.56;4878892;29;20104;-80
2020/12/25 12:53:48;;;;;;;8.00;2.63;;;;;;;-0.36;100.00;101420.78;4880204;29;20052;-80
2020/12/25 12:56:50;;;;;;;1.35;1.30;;;;;;;-0.25;100.00;101425.31;4878983;29;20083;-81
2020/12/25 12:59:53;;;;;;;5.40;2.17;;;;;;;-0.16;100.00;101423.13;4879043;29;20112;-82
2020/12/25 13:02:56;;;;;;;2.03;1.85;;;;;;;-0.10;100.00;101429.88;4878083;29;20047;-80
2020/12/25 13:06:00;;;;;;;5.03;1.90;;;;;;;-0.06;100.00;101419.75;4871430;29;20048;-83
2020/12/25 13:09:03;;;;;;;5.63;2.75;;;;;;;-0.05;100.00;101424.09;4877601;29;20089;-83
2020/12/25 13:12:06;;;;;;;7.95;2.25;;;;;;;-0.06;100.00;101425.25;4860972;29;20395;-85
2020/12/25 13:15:09;;;;;;;10.65;2.20;;;;;;;-0.07;100.00;101415.47;4849183;29;20095;-83
2020/12/25 13:18:13;;;;;;;3.33;2.67;;;;;;;0.02;100.00;101404.25;4860411;29;20153;-81
2020/12/25 13:21:23;;;;;;;17.13;5.75;;;;;;;0.10;100.00;101405.16;4850988;29;20097;-81
2020/12/25 13:24:30;;;;;;;19.20;5.65;;;;;;;0.18;100.00;101396.69;4874540;29;20047;-81
2020/12/25 13:27:33;;;;;;;10.95;3.42;;;;;;;0.19;100.00;101386.53;4878140;29;20044;-81
2020/12/25 13:30:36;;;;;;;4.90;2.03;;;;;;;0.21;100.00;101390.47;4865601;29;20100;-81
2020/12/25 13:33:39;;;;;;;3.80;1.95;;;;;;;0.23;100.00;101387.34;4877395;29;20048;-82
2020/12/25 13:36:42;;;;;;;6.95;2.83;;;;;;;0.22;100.00;101380.31;4862912;29;20092;-77
2020/12/25 13:39:45;;;;;;;3.70;1.58;;;;;;;0.18;100.00;101391.19;4878418;29;20059;-81
2020/12/25 13:42:48;;;;;;;9.20;1.67;;;;;;;0.20;100.00;101375.19;4879392;29;20079;-87
2020/12/25 13:45:51;;;;;;;0.80;0.80;;;;;;;0.21;100.00;101374.03;4868113;29;20052;-86
2020/12/25 13:48:54;;;;;;;2.33;1.33;;;;;;;0.21;100.00;101359.53;4868542;29;20135;-88
2020/12/25 13:51:57;;;;;;;3.55;1.85;;;;;;;0.26;100.00;101360.00;4868373;29;20048;-88
2020/12/25 13:55:03;;;;;;;4.68;1.58;;;;;;;0.27;100.00;101358.88;4868120;29;20048;-86
2020/12/25 13:58:06;;;;;;;0.50;0.50;;;;;;;0.32;100.00;101355.81;4868226;29;20426;-86
2020/12/25 14:01:13;;;;;;;0.57;0.57;;;;;;;0.36;100.00;101358.59;4885361;29;20108;-86
2020/12/25 14:04:16;;;;;;;1.73;1.15;;;;;;;0.38;100.00;101356.28;4880816;29;20696;-83